createdAt,value
2019-01-24T00:02:57.705Z,0.50
2019-01-24T00:07:50.327Z,0.40
2019-01-24T00:12:43.158Z,0.40
2019-01-24T00:17:36.019Z,0.50
2019-01-24T00:22:28.833Z,0.50
2019-01-24T00:27:21.676Z,0.50
2019-01-24T00:32:14.521Z,0.40
2019-01-24T00:37:07.351Z,0.40
2019-01-24T00:42:00.218Z,0.40
2019-01-24T00:46:53.045Z,0.40
2019-01-24T00:51:45.920Z,0.40
2019-01-24T00:56:38.721Z,0.30
2019-01-24T01:01:31.585Z,0.30
2019-01-24T01:06:24.418Z,0.30
2019-01-24T01:11:17.255Z,0.20
2019-01-24T01:16:10.111Z,0.30
2019-01-24T01:21:02.990Z,0.30
2019-01-24T01:25:55.829Z,0.20
2019-01-24T01:30:48.675Z,0.20
2019-01-24T01:35:41.509Z,0.20
2019-01-24T01:40:34.489Z,0.20
2019-01-24T01:45:27.320Z,0.20
2019-01-24T01:50:22.681Z,0.20
2019-01-24T01:55:16.434Z,0.20
2019-01-24T02:00:14.543Z,0.10
2019-01-24T02:05:08.227Z,0.10
2019-01-24T02:10:13.581Z,0.00
2019-01-24T02:15:08.164Z,0.50
2019-01-24T02:20:01.081Z,0.00
2019-01-24T02:24:53.920Z,-0.10
2019-01-24T02:29:46.755Z,-0.20
2019-01-24T02:34:39.620Z,-0.20
2019-01-24T02:39:32.436Z,-0.10
2019-01-24T02:44:25.308Z,-0.10
2019-01-24T02:49:18.137Z,-0.10
2019-01-24T02:54:11.021Z,0.00
2019-01-24T02:59:04.084Z,-0.10
2019-01-24T03:03:56.939Z,-0.10
2019-01-24T03:08:49.801Z,-0.10
2019-01-24T03:13:42.639Z,-0.10
2019-01-24T03:18:35.488Z,-0.20
2019-01-24T03:23:29.218Z,-0.20
2019-01-24T03:28:22.053Z,0.00
2019-01-24T03:33:14.934Z,0.00
2019-01-24T03:38:07.755Z,-0.10
2019-01-24T03:43:00.580Z,-0.10
2019-01-24T03:47:53.416Z,-0.10
2019-01-24T03:52:46.829Z,-0.20
2019-01-24T03:57:39.662Z,-0.10
2019-01-24T04:02:32.501Z,-0.10
2019-01-24T04:07:25.342Z,-0.10
2019-01-24T04:12:18.207Z,-0.40
2019-01-24T04:17:11.131Z,-0.40
2019-01-24T04:22:03.998Z,-0.20
2019-01-24T04:26:56.830Z,-0.20
2019-01-24T04:31:49.721Z,-0.20
2019-01-24T04:36:42.513Z,-0.20
2019-01-24T04:41:35.347Z,-0.30
2019-01-24T04:46:28.187Z,-0.30
2019-01-24T04:51:21.015Z,-0.30
2019-01-24T04:56:13.885Z,-0.30
2019-01-24T05:01:06.747Z,-0.30
2019-01-24T05:05:59.616Z,-0.40
2019-01-24T05:10:52.418Z,-0.30
2019-01-24T05:15:45.293Z,-0.30
2019-01-24T05:20:38.131Z,-0.30
2019-01-24T05:25:30.975Z,-0.40
2019-01-24T05:30:27.264Z,-0.40
2019-01-24T05:35:20.112Z,-0.40
2019-01-24T05:40:13.154Z,-0.50
2019-01-24T05:45:06.854Z,-0.50
2019-01-24T05:49:59.679Z,-0.60
2019-01-24T05:54:52.525Z,-0.70
2019-01-24T05:59:45.348Z,-0.70
2019-01-24T06:04:38.222Z,-0.60
2019-01-24T06:09:31.047Z,-0.60
2019-01-24T06:14:23.885Z,-0.70
2019-01-24T06:19:16.709Z,-0.70
2019-01-24T06:24:09.537Z,-0.80
2019-01-24T06:29:03.078Z,-0.70
2019-01-24T06:33:56.079Z,-0.70
2019-01-24T06:38:48.926Z,-0.50
2019-01-24T06:43:41.766Z,-0.90
2019-01-24T06:48:34.763Z,-0.80
2019-01-24T06:53:27.575Z,-0.70
2019-01-24T06:58:20.423Z,-0.60
2019-01-24T07:03:13.241Z,-0.60
2019-01-24T07:08:06.212Z,-0.90
2019-01-24T07:12:59.024Z,-0.60
2019-01-24T07:17:51.850Z,-0.80
2019-01-24T07:22:44.696Z,-0.70
2019-01-24T07:27:37.540Z,-0.80
2019-01-24T07:32:30.382Z,-0.80
2019-01-24T07:37:23.223Z,-0.70
2019-01-24T07:42:16.113Z,-0.80
2019-01-24T07:47:08.965Z,-0.80
2019-01-24T07:52:01.850Z,-1.00
2019-01-24T07:56:54.784Z,-0.50
2019-01-24T08:01:47.899Z,-0.50
2019-01-24T08:06:40.807Z,-0.50
2019-01-24T08:11:33.766Z,-0.50
2019-01-24T08:16:27.669Z,-0.50
2019-01-24T08:21:20.616Z,-0.20
2019-01-24T08:26:13.496Z,-0.10
2019-01-24T08:31:06.358Z,-0.10
2019-01-24T08:35:59.229Z,-0.50
2019-01-24T08:40:52.110Z,-0.50
2019-01-24T08:45:44.958Z,-0.20
2019-01-24T08:50:37.787Z,-0.10
2019-01-24T08:55:37.111Z,-0.10
2019-01-24T09:00:30.085Z,-0.10
2019-01-24T09:05:23.339Z,0.00
2019-01-24T09:10:20.426Z,0.00
2019-01-24T09:15:13.811Z,0.00
2019-01-24T09:20:10.333Z,-0.10
2019-01-24T09:25:03.881Z,-0.10
2019-01-24T09:29:56.722Z,-0.20
2019-01-24T09:34:49.546Z,-0.10
2019-01-24T09:39:42.871Z,-0.20
2019-01-24T09:44:35.760Z,-0.10
2019-01-24T09:49:28.618Z,0.20
2019-01-24T09:54:21.469Z,0.20
2019-01-24T09:59:14.328Z,0.30
2019-01-24T10:04:07.167Z,0.30
2019-01-24T10:08:59.995Z,0.70
2019-01-24T10:13:54.643Z,1.30
2019-01-24T10:18:47.477Z,1.00
2019-01-24T10:23:40.352Z,1.30
2019-01-24T10:28:33.182Z,1.30
2019-01-24T10:33:26.032Z,1.60
2019-01-24T10:38:18.968Z,1.50
2019-01-24T10:43:11.855Z,2.00
2019-01-24T10:48:05.089Z,1.90
2019-01-24T10:52:57.933Z,1.60
2019-01-24T10:57:51.903Z,1.60
2019-01-24T11:02:45.081Z,1.40
2019-01-24T11:07:37.959Z,1.60
2019-01-24T11:12:31.357Z,1.90
2019-01-24T11:17:24.221Z,1.90
2019-01-24T11:22:17.059Z,1.90
2019-01-24T11:27:09.924Z,2.00
2019-01-24T11:32:02.875Z,1.90
2019-01-24T11:36:57.232Z,1.50
2019-01-24T11:41:50.289Z,1.50
2019-01-24T11:46:43.140Z,1.60
2019-01-24T11:51:36.093Z,2.00
2019-01-24T11:56:28.938Z,1.80
2019-01-24T12:01:21.771Z,1.80
2019-01-24T12:06:14.627Z,1.30
2019-01-24T12:11:07.467Z,1.30
2019-01-24T12:16:00.352Z,1.20
2019-01-24T12:20:53.185Z,1.00
2019-01-24T12:25:46.025Z,1.60
2019-01-24T12:30:38.858Z,1.80
2019-01-24T12:35:31.720Z,1.90
2019-01-24T12:40:24.583Z,1.90
2019-01-24T12:45:20.873Z,1.90
2019-01-24T12:50:15.280Z,1.90
2019-01-24T12:55:08.846Z,1.80
2019-01-24T13:00:01.725Z,1.80
2019-01-24T13:04:54.537Z,1.50
2019-01-24T13:09:47.377Z,1.70
2019-01-24T13:14:40.188Z,1.70
2019-01-24T13:19:33.091Z,1.60
2019-01-24T13:24:26.008Z,1.40
2019-01-24T13:29:18.890Z,1.40
2019-01-24T13:34:11.719Z,1.60
2019-01-24T13:39:09.679Z,1.30
2019-01-24T13:44:02.564Z,1.30
2019-01-24T13:48:55.426Z,1.60
2019-01-24T13:53:48.251Z,1.60
2019-01-24T13:58:41.129Z,1.60
2019-01-24T14:03:54.696Z,1.50
2019-01-24T14:08:47.544Z,1.50
2019-01-24T14:13:40.537Z,1.70
2019-01-24T14:18:33.377Z,1.20
2019-01-24T14:23:26.263Z,1.20
2019-01-24T14:28:19.182Z,1.40
2019-01-24T14:33:12.163Z,1.50
2019-01-24T14:38:06.897Z,1.40
2019-01-24T14:42:59.855Z,1.20
2019-01-24T14:47:52.743Z,1.10
2019-01-24T14:52:45.604Z,0.90
2019-01-24T14:57:38.436Z,0.90
2019-01-24T15:02:31.259Z,0.80
2019-01-24T15:07:24.098Z,0.60
2019-01-24T15:12:16.944Z,0.50
2019-01-24T15:17:09.797Z,0.50
2019-01-24T15:22:02.617Z,0.90
2019-01-24T15:26:55.475Z,0.80
2019-01-24T15:31:48.302Z,0.50
2019-01-24T15:36:41.227Z,0.70
2019-01-24T15:41:34.123Z,0.60
2019-01-24T15:46:26.991Z,0.10
2019-01-24T15:51:19.902Z,0.00
2019-01-24T15:56:12.784Z,0.30
2019-01-24T16:01:05.704Z,0.40
2019-01-24T16:05:58.529Z,0.50
2019-01-24T16:10:51.385Z,0.50
2019-01-24T16:15:44.230Z,0.40
2019-01-24T16:20:37.216Z,0.30
2019-01-24T16:25:31.425Z,0.20
2019-01-24T16:30:27.090Z,0.10
2019-01-24T16:35:20.429Z,0.10
2019-01-24T16:40:15.444Z,-0.10
2019-01-24T16:45:15.347Z,-0.10
2019-01-24T16:50:09.668Z,0.00
2019-01-24T16:55:02.702Z,0.10
2019-01-24T16:59:55.551Z,0.20
2019-01-24T17:04:48.523Z,0.10
2019-01-24T17:09:43.550Z,0.10
2019-01-24T17:14:37.520Z,0.00
2019-01-24T17:19:34.061Z,0.00
2019-01-24T17:24:26.984Z,-0.30
2019-01-24T17:29:19.833Z,-0.60
2019-01-24T17:34:12.651Z,-0.30
2019-01-24T17:39:10.095Z,-0.10
2019-01-24T17:44:03.251Z,0.00
2019-01-24T17:48:56.124Z,-0.10
2019-01-24T17:53:49.365Z,0.10
2019-01-24T17:58:42.201Z,0.20
2019-01-24T18:03:36.093Z,0.20
2019-01-24T18:08:31.307Z,0.20
2019-01-24T18:13:23.835Z,0.30
2019-01-24T18:18:18.338Z,0.20
2019-01-24T18:23:11.448Z,0.30
2019-01-24T18:28:06.516Z,0.30
2019-01-24T18:32:59.501Z,0.30
2019-01-24T18:37:52.352Z,0.00
2019-01-24T18:42:45.429Z,0.00
2019-01-24T18:47:38.256Z,-0.40
2019-01-24T18:52:31.119Z,-0.90
2019-01-24T18:57:23.949Z,-0.70
2019-01-24T19:02:16.839Z,-0.40
2019-01-24T19:07:09.765Z,-0.30
2019-01-24T19:16:55.702Z,-0.70
2019-01-24T19:21:48.588Z,-0.90
2019-01-24T19:26:41.409Z,-0.80
2019-01-24T19:31:34.406Z,-1.00
2019-01-24T19:36:27.366Z,-0.80
2019-01-24T19:41:20.222Z,-0.30
2019-01-24T19:46:13.049Z,0.10
2019-01-24T19:51:05.981Z,0.20
2019-01-24T19:55:58.830Z,-0.10
2019-01-24T20:00:51.680Z,-0.10
2019-01-24T20:05:44.553Z,-0.70
2019-01-24T20:10:37.409Z,-0.70
2019-01-24T20:15:31.187Z,-0.60
2019-01-24T20:20:24.147Z,-0.60
2019-01-24T20:25:20.964Z,0.20
2019-01-24T20:30:18.206Z,0.20
2019-01-24T20:35:18.993Z,0.30
2019-01-24T20:40:12.744Z,0.40
2019-01-24T20:45:06.099Z,0.20
2019-01-24T20:49:59.168Z,0.00
2019-01-24T20:54:52.185Z,-0.20
2019-01-24T20:59:45.167Z,-0.40
2019-01-24T21:04:38.169Z,-0.60
2019-01-24T21:09:31.144Z,-0.70
2019-01-24T21:14:24.131Z,-0.70
2019-01-24T21:19:17.166Z,-0.60
2019-01-24T21:24:10.156Z,-0.20
2019-01-24T21:29:03.219Z,-0.10
2019-01-24T21:33:56.314Z,0.00
2019-01-24T21:38:49.298Z,-0.50
2019-01-24T21:43:42.283Z,-0.70
2019-01-24T21:48:35.156Z,-0.90
2019-01-24T21:53:28.162Z,-0.70
2019-01-24T21:58:21.169Z,-0.20
2019-01-24T22:03:14.155Z,-0.70
2019-01-24T22:08:07.158Z,-0.70
2019-01-24T22:13:00.178Z,-0.80
2019-01-24T22:17:53.173Z,-1.00
2019-01-24T22:22:46.178Z,-0.90
2019-01-24T22:27:39.198Z,-0.80
2019-01-24T22:32:32.123Z,-0.90
2019-01-24T22:37:25.104Z,-0.60
2019-01-24T22:42:17.966Z,-0.80
2019-01-24T22:47:10.993Z,-0.90
2019-01-24T22:52:04.390Z,-1.00
2019-01-24T22:56:57.620Z,-1.20
2019-01-24T23:02:22.172Z,-1.00
2019-01-24T23:07:21.312Z,-0.60
2019-01-24T23:12:14.246Z,-0.20
2019-01-24T23:17:07.167Z,-1.10
2019-01-24T23:22:00.166Z,-1.10
2019-01-24T23:26:53.070Z,-0.90
2019-01-24T23:31:46.108Z,-0.90
2019-01-24T23:36:39.107Z,-0.60
2019-01-24T23:41:32.137Z,-0.80
2019-01-24T23:46:25.116Z,-1.00
2019-01-24T23:51:17.980Z,-1.00
2019-01-24T23:56:12.126Z,-1.00
